Time;durP1;ratioP1;P1;durP2;ratioP2;P2;SDS_P1;SDS_P2;PMS_P1;PMS_P2;Temp;Humidity;BMP_temperature;BMP_pressure;BME280_temperature;BME280_humidity;BME280_pressure;Samples;Min_cycle;Max_cycle;Signal;HPM_P1;HPM_P2
2022/03/26 00:00:24;;;;;;;52.03;25.40;;;9.30;99.90;;;;;;5069807;28;20188;-60
2022/03/26 00:02:51;;;;;;;48.07;24.87;;;9.30;99.90;;;;;;5070987;28;20259;-60
2022/03/26 00:05:17;;;;;;;52.30;25.60;;;9.20;99.90;;;;;;5070820;28;20299;-60
2022/03/26 00:07:43;;;;;;;51.40;24.77;;;9.10;99.90;;;;;;5070849;28;20258;-60
2022/03/26 00:10:10;;;;;;;50.93;25.27;;;9.00;99.90;;;;;;5070839;28;20184;-60
2022/03/26 00:12:36;;;;;;;54.20;25.40;;;9.00;99.90;;;;;;5070903;28;20199;-61
2022/03/26 00:15:04;;;;;;;50.90;23.97;;;9.00;99.90;;;;;;5070985;28;20270;-61
2022/03/26 00:17:31;;;;;;;54.50;25.27;;;9.00;99.90;;;;;;5070658;28;20180;-60
2022/03/26 00:19:57;;;;;;;46.00;24.43;;;9.00;99.90;;;;;;5070543;28;20164;-60
2022/03/26 00:22:23;;;;;;;54.33;25.20;;;9.00;99.90;;;;;;5070353;28;20234;-60
2022/03/26 00:24:49;;;;;;;50.57;24.50;;;9.00;99.90;;;;;;5048821;28;20196;-60
2022/03/26 00:27:15;;;;;;;49.23;25.20;;;8.80;99.90;;;;;;5068966;28;20180;-60
2022/03/26 00:29:40;;;;;;;54.37;26.20;;;8.80;99.90;;;;;;5069348;28;20185;-59
2022/03/26 00:32:07;;;;;;;48.27;25.50;;;8.70;99.90;;;;;;5058087;28;20230;-59
2022/03/26 00:34:33;;;;;;;56.83;27.00;;;8.60;99.90;;;;;;5054486;28;20273;-61
2022/03/26 00:37:00;;;;;;;56.80;26.70;;;8.60;99.90;;;;;;5065732;28;20734;-59
2022/03/26 00:39:26;;;;;;;51.83;25.57;;;8.50;99.90;;;;;;5069024;28;20260;-59
2022/03/26 00:41:52;;;;;;;60.57;25.93;;;8.40;99.90;;;;;;5052767;28;20220;-59
2022/03/26 00:44:18;;;;;;;52.47;25.93;;;8.30;99.90;;;;;;5056414;28;20656;-63
2022/03/26 00:46:47;;;;;;;49.70;25.27;;;8.30;99.90;;;;;;5066937;28;20511;-59
2022/03/26 00:49:18;;;;;;;53.17;26.47;;;8.20;99.90;;;;;;5070009;28;20550;-60
2022/03/26 00:51:44;;;;;;;53.10;26.30;;;8.10;99.90;;;;;;5070004;28;20229;-60
2022/03/26 00:54:11;;;;;;;54.70;26.60;;;8.10;99.90;;;;;;5068361;28;20176;-60
2022/03/26 00:56:38;;;;;;;53.10;25.87;;;8.10;99.90;;;;;;5068567;28;20221;-60
2022/03/26 00:59:05;;;;;;;54.07;25.57;;;8.10;99.90;;;;;;5060084;28;20189;-60
2022/03/26 01:01:32;;;;;;;65.27;25.63;;;8.10;99.90;;;;;;5068519;28;20190;-60
2022/03/26 01:03:58;;;;;;;53.87;26.50;;;8.10;99.90;;;;;;5068240;28;20180;-60
2022/03/26 01:06:24;;;;;;;58.07;27.00;;;8.10;99.90;;;;;;5069416;28;20322;-60
2022/03/26 01:08:50;;;;;;;59.40;25.87;;;8.20;99.90;;;;;;5050038;28;20248;-60
2022/03/26 01:11:17;;;;;;;64.07;27.23;;;8.10;99.90;;;;;;5060707;28;20173;-60
2022/03/26 01:13:44;;;;;;;64.33;26.40;;;8.10;99.90;;;;;;5050307;28;20220;-60
2022/03/26 01:16:10;;;;;;;54.67;25.13;;;8.10;99.90;;;;;;5055958;28;20259;-60
2022/03/26 01:18:36;;;;;;;56.07;26.23;;;8.10;99.90;;;;;;5060028;28;20216;-60
2022/03/26 01:21:03;;;;;;;57.07;26.00;;;8.10;99.90;;;;;;5044784;28;20190;-60
2022/03/26 01:23:29;;;;;;;56.17;25.70;;;8.10;99.90;;;;;;5062240;28;20276;-59
2022/03/26 01:25:55;;;;;;;56.70;26.13;;;8.10;99.90;;;;;;5049957;28;20320;-60
2022/03/26 01:28:21;;;;;;;64.43;26.60;;;8.10;99.90;;;;;;5053797;28;20676;-60
2022/03/26 01:30:47;;;;;;;62.07;26.80;;;8.10;99.90;;;;;;5061270;28;20219;-60
2022/03/26 01:33:13;;;;;;;57.33;26.53;;;8.10;99.90;;;;;;5069399;28;20212;-60
2022/03/26 01:35:39;;;;;;;54.90;27.63;;;8.10;99.90;;;;;;5038040;28;20180;-59
2022/03/26 01:38:06;;;;;;;62.30;27.03;;;8.20;99.90;;;;;;5063573;28;20173;-59
2022/03/26 01:40:35;;;;;;;58.93;27.17;;;8.20;99.90;;;;;;5054680;28;20175;-60
2022/03/26 01:43:02;;;;;;;57.37;27.83;;;8.20;99.90;;;;;;5065853;28;20188;-59
2022/03/26 01:45:29;;;;;;;54.53;26.67;;;8.30;99.90;;;;;;5066688;28;20208;-59
2022/03/26 01:47:56;;;;;;;60.40;28.27;;;8.20;99.90;;;;;;5055456;28;20264;-59
2022/03/26 01:50:23;;;;;;;53.20;27.03;;;8.20;99.90;;;;;;5050812;28;20239;-59
2022/03/26 01:52:49;;;;;;;54.00;27.20;;;8.20;99.90;;;;;;5059994;28;20551;-59
2022/03/26 01:55:15;;;;;;;61.80;28.27;;;8.20;99.90;;;;;;5061038;28;20188;-59
2022/03/26 01:57:41;;;;;;;57.83;27.37;;;8.10;99.90;;;;;;5057969;28;20185;-59
2022/03/26 02:00:08;;;;;;;53.33;26.53;;;8.10;99.90;;;;;;5054349;28;20177;-59
2022/03/26 02:02:35;;;;;;;61.43;27.30;;;8.10;99.90;;;;;;5056409;28;20173;-60
2022/03/26 02:05:01;;;;;;;55.80;26.73;;;8.10;99.90;;;;;;5069592;28;20231;-59
2022/03/26 02:07:27;;;;;;;53.30;27.77;;;8.10;99.90;;;;;;5060056;28;20260;-59
2022/03/26 02:09:53;;;;;;;58.70;28.20;;;8.10;99.90;;;;;;5052354;28;20331;-59
2022/03/26 02:12:27;;;;;;;57.40;27.13;;;8.10;99.90;;;;;;5061104;28;20176;-59
2022/03/26 02:14:54;;;;;;;56.43;25.83;;;8.00;99.90;;;;;;5059998;28;20725;-59
2022/03/26 02:17:20;;;;;;;50.93;26.63;;;8.00;99.90;;;;;;5062250;28;20180;-59
2022/03/26 02:19:51;;;;;;;61.97;25.77;;;8.00;99.90;;;;;;5065582;28;20168;-59
2022/03/26 02:22:18;;;;;;;57.90;25.87;;;8.00;99.90;;;;;;5069242;28;20191;-59
2022/03/26 02:24:43;;;;;;;60.80;27.90;;;8.00;99.90;;;;;;5072053;28;20314;-59
2022/03/26 02:27:09;;;;;;;54.00;27.27;;;8.00;99.90;;;;;;5071203;28;20255;-59
2022/03/26 02:29:35;;;;;;;53.37;27.43;;;7.90;99.90;;;;;;5072629;28;20176;-59
2022/03/26 02:32:02;;;;;;;64.23;28.03;;;7.90;99.90;;;;;;5072272;28;20197;-59
2022/03/26 02:34:27;;;;;;;59.53;29.03;;;7.80;99.90;;;;;;5065721;28;20173;-58
2022/03/26 02:36:58;;;;;;;61.00;28.30;;;7.80;99.90;;;;;;5053791;28;20674;-58
2022/03/26 02:39:24;;;;;;;54.10;28.10;;;7.80;99.90;;;;;;5068509;28;20237;-58
2022/03/26 02:41:50;;;;;;;59.73;28.57;;;7.80;99.90;;;;;;5059700;28;20234;-58
2022/03/26 02:44:16;;;;;;;57.20;27.77;;;7.80;99.90;;;;;;5066937;28;20170;-58
2022/03/26 02:46:45;;;;;;;61.30;28.43;;;7.80;99.90;;;;;;5038029;28;20287;-59
2022/03/26 02:49:14;;;;;;;70.23;28.27;;;7.70;99.90;;;;;;5072180;28;20184;-59
2022/03/26 02:51:40;;;;;;;62.67;28.77;;;7.70;99.90;;;;;;5070179;28;20176;-58
2022/03/26 02:54:18;;;;;;;59.70;27.13;;;7.70;99.90;;;;;;5062516;28;20673;-58
2022/03/26 02:56:48;;;;;;;60.53;27.87;;;7.60;99.90;;;;;;5063383;28;20189;-59
2022/03/26 02:59:15;;;;;;;62.87;28.70;;;7.50;99.90;;;;;;5054681;28;20180;-59
2022/03/26 03:01:41;;;;;;;64.07;28.37;;;7.40;99.90;;;;;;5055461;28;20226;-59
2022/03/26 03:04:07;;;;;;;68.40;28.10;;;7.30;99.90;;;;;;5061040;28;20180;-59
2022/03/26 03:06:33;;;;;;;68.63;28.40;;;7.20;99.90;;;;;;5071762;28;20215;-59
2022/03/26 03:08:59;;;;;;;58.80;27.83;;;7.20;99.90;;;;;;5060302;28;20173;-59
2022/03/26 03:11:25;;;;;;;64.73;29.20;;;7.10;99.90;;;;;;5071174;28;20176;-59
2022/03/26 03:13:50;;;;;;;65.10;29.77;;;7.00;99.90;;;;;;5067399;28;20201;-60
2022/03/26 03:16:16;;;;;;;64.53;28.50;;;7.00;99.90;;;;;;5052025;28;20624;-59
2022/03/26 03:18:42;;;;;;;66.17;30.07;;;7.00;99.90;;;;;;5051907;28;20711;-59
2022/03/26 03:21:08;;;;;;;65.10;29.00;;;6.90;99.90;;;;;;5060389;28;20183;-59
2022/03/26 03:23:34;;;;;;;64.67;28.73;;;7.00;99.90;;;;;;5071196;28;20184;-59
2022/03/26 03:26:00;;;;;;;61.83;29.80;;;6.90;99.90;;;;;;5071128;28;20212;-59
2022/03/26 03:28:26;;;;;;;61.73;29.30;;;6.90;99.90;;;;;;5053435;28;20203;-58
2022/03/26 03:30:51;;;;;;;66.10;29.13;;;6.90;99.90;;;;;;5071563;28;20177;-59
2022/03/26 03:33:17;;;;;;;58.43;29.10;;;6.90;99.90;;;;;;5061981;28;20165;-58
2022/03/26 03:35:43;;;;;;;66.80;30.50;;;6.90;99.90;;;;;;5058048;28;20534;-59
2022/03/26 03:38:09;;;;;;;61.97;28.17;;;6.90;99.90;;;;;;5071588;28;20168;-58
2022/03/26 03:40:35;;;;;;;63.33;29.83;;;6.90;99.90;;;;;;5068107;28;20188;-58
2022/03/26 03:43:00;;;;;;;62.20;30.47;;;6.90;99.90;;;;;;5057976;28;20183;-58
2022/03/26 03:45:26;;;;;;;65.80;30.33;;;7.00;99.90;;;;;;5070577;28;20223;-58
2022/03/26 03:47:52;;;;;;;71.90;30.00;;;7.00;99.90;;;;;;5064128;28;20635;-58
2022/03/26 03:50:18;;;;;;;67.33;29.43;;;7.00;99.90;;;;;;5058825;28;20185;-58
2022/03/26 03:52:44;;;;;;;69.53;30.40;;;6.90;99.90;;;;;;5062136;28;20375;-58
2022/03/26 03:55:11;;;;;;;71.40;32.07;;;6.90;99.90;;;;;;5052009;28;20243;-58
2022/03/26 03:57:42;;;;;;;73.37;30.57;;;6.90;99.90;;;;;;5059040;28;20255;-58
2022/03/26 04:00:13;;;;;;;68.47;30.73;;;6.90;99.90;;;;;;5064025;28;20177;-58
2022/03/26 04:02:40;;;;;;;73.07;31.30;;;6.90;99.90;;;;;;5053936;28;20176;-58
2022/03/26 04:05:09;;;;;;;62.77;28.63;;;6.80;99.90;;;;;;5070416;28;20266;-58
2022/03/26 04:07:39;;;;;;;63.77;29.70;;;6.70;99.90;;;;;;5063109;28;20533;-58
2022/03/26 04:10:07;;;;;;;71.27;30.40;;;6.70;99.90;;;;;;5060774;28;20181;-58
2022/03/26 04:12:37;;;;;;;72.00;31.47;;;6.80;99.90;;;;;;5050766;28;20183;-58
2022/03/26 04:15:04;;;;;;;65.40;29.27;;;6.70;99.90;;;;;;5061656;28;20220;-59
2022/03/26 04:17:30;;;;;;;64.97;30.03;;;6.70;99.90;;;;;;5071098;28;20509;-58
2022/03/26 04:19:56;;;;;;;70.47;30.40;;;6.70;99.90;;;;;;5070528;28;20226;-58
2022/03/26 04:22:22;;;;;;;66.33;29.97;;;6.70;99.90;;;;;;5070018;28;20184;-58
2022/03/26 04:24:47;;;;;;;70.20;30.73;;;6.70;99.90;;;;;;5065480;28;20184;-58
2022/03/26 04:27:13;;;;;;;66.03;30.17;;;6.70;99.90;;;;;;5050494;28;20266;-58
2022/03/26 04:29:39;;;;;;;68.33;29.43;;;6.70;99.90;;;;;;5050545;28;20654;-58
2022/03/26 04:32:05;;;;;;;69.23;31.23;;;6.70;99.90;;;;;;5049836;28;20591;-58
2022/03/26 04:34:31;;;;;;;68.90;29.03;;;6.60;99.90;;;;;;5066650;28;20245;-58
2022/03/26 04:36:57;;;;;;;69.47;31.17;;;6.60;99.90;;;;;;5066704;28;20642;-58
2022/03/26 04:39:23;;;;;;;67.50;30.53;;;6.60;99.90;;;;;;5070188;28;20271;-58
2022/03/26 04:41:49;;;;;;;67.40;29.33;;;6.60;99.90;;;;;;5070325;28;20647;-57
2022/03/26 04:44:15;;;;;;;64.93;29.40;;;6.60;99.90;;;;;;5062266;28;20259;-59
2022/03/26 04:46:41;;;;;;;71.80;29.77;;;6.50;99.90;;;;;;5070042;28;20208;-58
2022/03/26 04:49:07;;;;;;;70.40;30.50;;;6.40;99.90;;;;;;5070229;28;20271;-58
2022/03/26 04:51:34;;;;;;;71.30;30.97;;;6.30;99.90;;;;;;5069998;28;20184;-57
2022/03/26 04:53:59;;;;;;;69.70;30.70;;;6.20;99.90;;;;;;5060116;28;20255;-58
2022/03/26 04:56:25;;;;;;;73.97;31.00;;;6.10;99.90;;;;;;5069826;28;20259;-58
2022/03/26 04:58:53;;;;;;;64.40;30.23;;;6.00;99.90;;;;;;5055861;28;20172;-58
2022/03/26 05:01:18;;;;;;;74.03;32.27;;;5.90;99.90;;;;;;5066363;28;20199;-58
2022/03/26 05:03:44;;;;;;;80.27;31.87;;;5.80;99.90;;;;;;5061394;28;20595;-58
2022/03/26 05:06:10;;;;;;;72.60;31.63;;;5.90;99.90;;;;;;5069849;28;20212;-58
2022/03/26 05:08:36;;;;;;;70.97;32.03;;;5.80;99.90;;;;;;5068303;28;20168;-58
2022/03/26 05:11:02;;;;;;;75.77;30.60;;;5.80;99.90;;;;;;5069887;28;20241;-58
2022/03/26 05:13:27;;;;;;;69.57;30.77;;;5.70;99.90;;;;;;5065217;28;20521;-58
2022/03/26 05:15:53;;;;;;;71.67;31.63;;;5.60;99.90;;;;;;5050227;28;20188;-58
2022/03/26 05:18:19;;;;;;;76.53;30.90;;;5.70;99.90;;;;;;5054800;28;20180;-58
2022/03/26 05:20:45;;;;;;;77.17;32.00;;;5.80;99.90;;;;;;5061593;28;20180;-58
2022/03/26 05:23:11;;;;;;;74.20;31.47;;;5.70;99.90;;;;;;5069466;28;20173;-58
2022/03/26 05:25:37;;;;;;;76.60;32.53;;;5.80;99.90;;;;;;5069626;28;20265;-58
2022/03/26 05:28:03;;;;;;;76.43;32.87;;;5.90;99.90;;;;;;5050279;28;20168;-58
2022/03/26 05:30:29;;;;;;;65.93;30.27;;;5.90;99.90;;;;;;5069625;28;20267;-59
2022/03/26 05:32:55;;;;;;;70.27;30.87;;;5.90;99.90;;;;;;5069327;28;20263;-58
2022/03/26 05:35:21;;;;;;;69.37;30.70;;;6.00;99.90;;;;;;5067803;28;20177;-58
2022/03/26 05:37:49;;;;;;;73.70;31.53;;;6.00;99.90;;;;;;5067066;28;20255;-58
2022/03/26 05:40:17;;;;;;;77.07;31.77;;;6.00;99.90;;;;;;5060283;28;20169;-58
2022/03/26 05:42:44;;;;;;;75.07;31.23;;;6.00;99.90;;;;;;5059508;28;20259;-58
2022/03/26 05:45:11;;;;;;;78.47;30.97;;;6.00;99.90;;;;;;5067233;28;20189;-58
2022/03/26 05:47:38;;;;;;;83.23;32.47;;;6.00;99.90;;;;;;5072971;28;20250;-58
2022/03/26 05:50:06;;;;;;;70.80;29.97;;;6.00;99.90;;;;;;5073370;28;20212;-58
2022/03/26 05:52:32;;;;;;;67.57;30.87;;;6.00;99.90;;;;;;5070370;28;20203;-58
2022/03/26 05:54:58;;;;;;;78.10;31.07;;;6.00;99.90;;;;;;5073303;28;20176;-58
2022/03/26 05:57:24;;;;;;;79.13;32.97;;;6.00;99.90;;;;;;5063899;28;20179;-59
2022/03/26 05:59:50;;;;;;;77.63;31.30;;;6.00;99.90;;;;;;5057406;28;20238;-58
2022/03/26 06:02:16;;;;;;;79.37;32.90;;;5.90;99.90;;;;;;5053328;28;20177;-58
2022/03/26 06:04:43;;;;;;;75.93;31.23;;;5.90;99.90;;;;;;5060547;28;20173;-59
2022/03/26 06:07:09;;;;;;;83.00;31.70;;;5.90;99.90;;;;;;5072004;28;20183;-58
2022/03/26 06:09:38;;;;;;;73.13;30.20;;;5.90;99.90;;;;;;5072960;28;20173;-58
2022/03/26 06:12:05;;;;;;;80.43;30.83;;;5.90;99.90;;;;;;5070254;28;20184;-58
2022/03/26 06:14:30;;;;;;;84.90;31.77;;;5.90;99.90;;;;;;5069184;28;20227;-59
2022/03/26 06:16:57;;;;;;;77.63;31.57;;;5.90;99.90;;;;;;5059635;28;20181;-58
2022/03/26 06:19:23;;;;;;;76.97;30.97;;;6.00;99.90;;;;;;5070429;28;20183;-58
2022/03/26 06:21:48;;;;;;;90.20;32.43;;;6.00;99.90;;;;;;5057653;28;20184;-58
2022/03/26 06:24:14;;;;;;;91.23;32.60;;;6.00;99.90;;;;;;5063277;28;20192;-58
2022/03/26 06:26:43;;;;;;;79.13;32.67;;;6.00;99.90;;;;;;5072604;28;20231;-58
2022/03/26 06:29:09;;;;;;;82.97;31.97;;;6.00;99.90;;;;;;5055253;28;20255;-60
2022/03/26 06:31:35;;;;;;;85.20;32.93;;;6.00;99.90;;;;;;5072994;28;20347;-59
2022/03/26 06:34:01;;;;;;;84.70;31.60;;;6.00;99.90;;;;;;5072116;28;20645;-60
2022/03/26 06:36:27;;;;;;;83.27;31.57;;;6.00;99.90;;;;;;5059710;28;20181;-60
2022/03/26 06:38:53;;;;;;;79.27;31.00;;;6.10;99.90;;;;;;5060248;28;20308;-60
2022/03/26 06:41:19;;;;;;;83.20;32.00;;;6.20;99.90;;;;;;5054289;28;20235;-59
2022/03/26 06:43:45;;;;;;;79.10;31.10;;;6.20;99.90;;;;;;5071325;28;20176;-59
2022/03/26 06:46:12;;;;;;;77.97;30.03;;;6.30;99.90;;;;;;5070811;28;20212;-59
2022/03/26 06:48:38;;;;;;;72.83;30.43;;;6.20;99.90;;;;;;5056150;28;20169;-59
2022/03/26 06:51:08;;;;;;;78.60;30.57;;;6.20;99.90;;;;;;5061408;28;20237;-59
2022/03/26 06:53:35;;;;;;;73.57;30.47;;;6.20;99.90;;;;;;5055432;28;20169;-59
2022/03/26 06:56:02;;;;;;;77.80;30.07;;;6.30;99.90;;;;;;5057302;28;20225;-59
2022/03/26 06:58:28;;;;;;;79.40;30.73;;;6.30;99.90;;;;;;5052217;28;20182;-59
2022/03/26 07:00:54;;;;;;;75.13;31.13;;;7.10;99.90;;;;;;5057143;28;20229;-58
2022/03/26 07:03:20;;;;;;;83.63;30.57;;;6.40;99.90;;;;;;5052026;28;20170;-59
2022/03/26 07:05:46;;;;;;;76.97;30.93;;;6.40;99.90;;;;;;5031781;28;20331;-58
2022/03/26 07:08:12;;;;;;;83.87;31.33;;;6.50;99.90;;;;;;5065823;28;20180;-59
2022/03/26 07:10:44;;;;;;;81.50;30.70;;;6.60;99.90;;;;;;5054123;28;20204;-59
2022/03/26 07:13:11;;;;;;;78.37;30.60;;;6.70;99.90;;;;;;5052018;28;20182;-59
2022/03/26 07:15:37;;;;;;;75.20;30.90;;;6.80;99.90;;;;;;5058863;28;20189;-60
2022/03/26 07:18:02;;;;;;;71.17;30.70;;;6.90;99.90;;;;;;5052121;28;20670;-59
2022/03/26 07:20:29;;;;;;;80.63;31.20;;;7.00;99.90;;;;;;5064508;28;20180;-60
2022/03/26 07:22:54;;;;;;;80.03;32.23;;;7.10;99.90;;;;;;5070992;28;20183;-59
2022/03/26 07:25:20;;;;;;;75.47;30.63;;;7.20;99.90;;;;;;5065388;28;20209;-59
2022/03/26 07:27:46;;;;;;;74.30;30.20;;;7.30;99.90;;;;;;5065289;28;20177;-59
2022/03/26 07:30:12;;;;;;;74.40;29.43;;;7.30;99.90;;;;;;5071428;28;20533;-57
2022/03/26 07:32:38;;;;;;;80.03;29.50;;;7.40;99.90;;;;;;5070848;28;20635;-60
2022/03/26 07:35:05;;;;;;;72.90;29.07;;;7.40;99.90;;;;;;5065165;28;20176;-59
2022/03/26 07:37:31;;;;;;;69.77;30.23;;;7.50;99.90;;;;;;5064304;28;20173;-58
2022/03/26 07:39:56;;;;;;;80.50;30.80;;;7.50;99.90;;;;;;5061217;28;20292;-58
2022/03/26 07:42:22;;;;;;;75.73;29.53;;;7.70;99.90;;;;;;5067152;28;20174;-59
2022/03/26 07:44:48;;;;;;;72.73;30.27;;;7.90;99.90;;;;;;5069701;28;20639;-58
2022/03/26 07:47:14;;;;;;;75.23;29.60;;;7.90;99.90;;;;;;5068843;28;20180;-61
2022/03/26 07:49:40;;;;;;;70.57;29.23;;;7.90;99.90;;;;;;5071171;28;20165;-61
2022/03/26 07:52:06;;;;;;;69.87;29.43;;;8.10;99.90;;;;;;5066033;28;20619;-61
2022/03/26 07:54:31;;;;;;;76.40;31.17;;;8.20;99.90;;;;;;5052581;28;20169;-62
2022/03/26 07:56:57;;;;;;;66.77;30.37;;;8.30;99.90;;;;;;5055985;28;20242;-62
2022/03/26 07:59:23;;;;;;;67.33;29.50;;;8.40;99.90;;;;;;5070186;28;20647;-62
2022/03/26 08:01:49;;;;;;;74.20;30.40;;;8.60;99.90;;;;;;5071005;28;20266;-62
2022/03/26 08:04:15;;;;;;;66.30;29.57;;;8.70;99.90;;;;;;5053005;28;20176;-62
2022/03/26 08:06:40;;;;;;;70.70;29.23;;;8.90;99.90;;;;;;5070786;28;20763;-62
2022/03/26 08:09:06;;;;;;;71.03;30.03;;;9.10;99.90;;;;;;5066649;28;20665;-62
2022/03/26 08:11:32;;;;;;;66.13;29.40;;;9.30;99.90;;;;;;5067360;28;20263;-62
2022/03/26 08:13:58;;;;;;;63.67;28.97;;;9.40;99.90;;;;;;5061491;28;20248;-62
2022/03/26 08:16:25;;;;;;;68.40;29.77;;;9.60;99.90;;;;;;5050591;28;20284;-62
2022/03/26 08:18:51;;;;;;;61.60;27.20;;;9.80;99.90;;;;;;5065081;28;20690;-62
2022/03/26 08:21:17;;;;;;;64.13;28.10;;;9.90;99.90;;;;;;5070530;28;20627;-62
2022/03/26 08:23:44;;;;;;;65.33;27.37;;;10.10;99.90;;;;;;5070640;28;20753;-63
2022/03/26 08:29:07;;;;;;;70.00;27.03;;;10.50;99.90;;;;;;5017831;28;20267;-63
2022/03/26 08:31:33;;;;;;;70.53;28.93;;;10.60;99.90;;;;;;5050205;28;20217;-62
2022/03/26 08:34:02;;;;;;;63.77;27.37;;;10.80;99.90;;;;;;5050022;28;20162;-63
2022/03/26 08:36:30;;;;;;;61.30;27.67;;;11.00;99.90;;;;;;5058002;28;20608;-63
2022/03/26 08:38:55;;;;;;;51.10;23.65;;;13.20;99.90;;;;;;5070135;28;20176;-64
2022/03/26 08:41:22;;;;;;;50.70;23.15;;;16.00;99.90;;;;;;5069907;28;20655;-65
2022/03/26 08:43:50;;;;;;;47.05;21.33;;;17.70;99.90;;;;;;5049421;28;20544;-63
2022/03/26 08:46:18;;;;;;;54.95;22.15;;;19.30;99.90;;;;;;5050154;28;20219;-63
2022/03/26 08:48:45;;;;;;;48.95;21.05;;;20.30;99.90;;;;;;5057293;28;20173;-63
2022/03/26 08:51:10;;;;;;;43.05;20.20;;;20.70;99.90;;;;;;5060662;28;20187;-63
2022/03/26 08:53:36;;;;;;;43.00;21.42;;;21.80;99.90;;;;;;5032166;28;20640;-63
2022/03/26 08:56:04;;;;;;;41.38;21.73;;;22.50;99.90;;;;;;5052528;28;20270;-63
2022/03/26 08:58:31;;;;;;;40.92;20.17;;;23.20;99.90;;;;;;5069670;28;20168;-63
2022/03/26 09:00:57;;;;;;;40.45;20.42;;;21.80;99.90;;;;;;5069927;28;20631;-65
2022/03/26 09:03:23;;;;;;;39.25;20.48;;;20.30;99.90;;;;;;5070019;28;20188;-63
2022/03/26 09:05:50;;;;;;;36.65;19.02;;;19.20;99.90;;;;;;5064933;28;20647;-63
2022/03/26 09:08:16;;;;;;;35.80;18.40;;;18.80;99.90;;;;;;5056045;28;20745;-63
2022/03/26 09:10:42;;;;;;;37.08;18.73;;;21.10;99.90;;;;;;5069573;28;20183;-63
2022/03/26 09:13:08;;;;;;;38.42;18.02;;;22.20;99.90;;;;;;5055544;28;20531;-63
2022/03/26 09:15:34;;;;;;;38.17;17.48;;;23.60;99.90;;;;;;5031855;28;20717;-64
2022/03/26 09:18:00;;;;;;;31.05;15.48;;;24.40;99.50;;;;;;5051500;28;20181;-64
2022/03/26 09:20:26;;;;;;;37.08;15.90;;;23.90;98.70;;;;;;5054064;28;20158;-63
2022/03/26 09:22:52;;;;;;;33.55;15.80;;;24.80;97.50;;;;;;5062598;28;20255;-63
2022/03/26 09:25:20;;;;;;;29.98;15.98;;;24.80;96.60;;;;;;5073859;28;20204;-63
2022/03/26 09:27:46;;;;;;;30.63;16.42;;;25.00;96.30;;;;;;5073846;28;20271;-64
2022/03/26 09:30:12;;;;;;;33.35;16.20;;;25.10;95.50;;;;;;5074091;28;20165;-63
2022/03/26 09:32:38;;;;;;;33.45;16.05;;;25.20;95.20;;;;;;5068001;28;20177;-64
2022/03/26 09:35:05;;;;;;;29.30;15.93;;;25.20;95.50;;;;;;5053853;28;20663;-64
2022/03/26 09:37:30;;;;;;;32.70;16.27;;;25.20;95.00;;;;;;5061479;28;20173;-61
2022/03/26 09:39:57;;;;;;;27.60;14.88;;;24.50;94.20;;;;;;5057618;28;20685;-61
2022/03/26 09:42:24;;;;;;;32.80;15.65;;;25.00;94.80;;;;;;5053498;28;20256;-60
2022/03/26 09:44:50;;;;;;;31.48;15.27;;;25.90;94.70;;;;;;5059660;28;20532;-60
2022/03/26 09:47:16;;;;;;;31.08;15.25;;;27.00;94.00;;;;;;5073496;28;20176;-60
2022/03/26 09:49:43;;;;;;;28.60;14.63;;;26.40;92.80;;;;;;5068393;28;20196;-60
2022/03/26 09:52:09;;;;;;;34.13;15.10;;;27.00;93.20;;;;;;5072840;28;20180;-59
2022/03/26 09:54:36;;;;;;;33.90;14.75;;;26.80;92.50;;;;;;5073402;28;20165;-60
2022/03/26 09:57:03;;;;;;;29.55;14.77;;;25.10;92.70;;;;;;5068382;28;20240;-59
2022/03/26 09:59:29;;;;;;;25.83;14.05;;;24.40;92.90;;;;;;5071812;28;20218;-60
2022/03/26 10:01:55;;;;;;;32.58;13.77;;;24.70;93.00;;;;;;5053183;28;20185;-60
2022/03/26 10:04:23;;;;;;;29.45;13.65;;;24.90;93.10;;;;;;5053001;28;20245;-60
2022/03/26 10:06:54;;;;;;;21.05;13.85;;;25.90;92.90;;;;;;5053090;28;20205;-62
2022/03/26 10:09:40;;;;;;;31.38;14.88;;;26.90;91.90;;;;;;5046957;28;20181;-62
2022/03/26 10:12:16;;;;;;;26.30;13.68;;;27.00;91.50;;;;;;5072769;28;20179;-60
2022/03/26 10:14:59;;;;;;;23.10;12.73;;;27.30;90.80;;;;;;5072763;28;20208;-59
2022/03/26 10:18:07;;;;;;;25.65;12.77;;;25.60;90.50;;;;;;5072872;28;20669;-67
2022/03/26 10:20:33;;;;;;;26.92;12.90;;;25.20;91.20;;;;;;5071564;28;20285;-62
2022/03/26 10:22:59;;;;;;;23.67;12.27;;;25.30;91.60;;;;;;5062668;28;20612;-63
2022/03/26 10:25:25;;;;;;;23.48;12.43;;;26.30;91.70;;;;;;5072346;28;20215;-62
2022/03/26 10:27:56;;;;;;;22.77;13.00;;;26.50;90.90;;;;;;5067675;28;20563;-64
2022/03/26 10:33:28;;;;;;;22.17;11.32;;;26.50;90.70;;;;;;5009080;28;20178;-64
2022/03/26 10:35:55;;;;;;;23.75;11.18;;;27.80;90.90;;;;;;5039371;28;20282;-60
2022/03/26 10:38:28;;;;;;;28.52;11.27;;;26.00;89.80;;;;;;5066578;28;20173;-62
2022/03/26 10:41:02;;;;;;;19.35;11.07;;;24.00;90.60;;;;;;5069535;28;20185;-62
2022/03/26 10:43:28;;;;;;;21.42;10.93;;;23.60;90.00;;;;;;5053072;28;20173;-62
2022/03/26 10:45:55;;;;;;;25.70;10.30;;;24.20;91.40;;;;;;5067346;28;20232;-62
2022/03/26 10:48:30;;;;;;;25.23;9.95;;;25.40;90.50;;;;;;5071692;28;20168;-63
2022/03/26 10:50:58;;;;;;;25.65;9.82;;;26.20;90.30;;;;;;5070438;28;20182;-61
2022/03/26 10:53:42;;;;;;;24.27;10.68;;;27.00;90.30;;;;;;5072113;28;20172;-61
2022/03/26 10:56:12;;;;;;;21.83;9.65;;;27.50;89.20;;;;;;5070840;28;20234;-62
2022/03/26 10:58:39;;;;;;;22.33;10.18;;;27.50;88.70;;;;;;5070677;28;20172;-62
2022/03/26 11:01:06;;;;;;;19.35;10.05;;;25.80;86.50;;;;;;5067650;28;20173;-62
2022/03/26 11:03:34;;;;;;;24.38;9.90;;;24.70;89.20;;;;;;5071140;28;20298;-63
2022/03/26 11:06:00;;;;;;;21.63;9.77;;;25.00;87.20;;;;;;5071898;28;20293;-62
2022/03/26 11:08:34;;;;;;;17.60;9.40;;;25.10;89.10;;;;;;5071754;28;20169;-63
2022/03/26 11:11:05;;;;;;;21.25;9.85;;;25.40;90.40;;;;;;5069987;28;20169;-63
2022/03/26 11:13:36;;;;;;;21.52;9.43;;;26.20;89.20;;;;;;5071632;28;20219;-63
2022/03/26 11:16:04;;;;;;;28.90;8.27;;;26.10;90.20;;;;;;5071726;28;20244;-63
2022/03/26 11:18:40;;;;;;;23.25;7.82;;;25.90;90.20;;;;;;5071713;28;20248;-63
2022/03/26 11:21:29;;;;;;;24.13;8.20;;;26.40;90.50;;;;;;5055233;28;20187;-62
2022/03/26 11:24:32;;;;;;;19.02;8.18;;;26.70;90.30;;;;;;5051707;28;20169;-62
2022/03/26 11:27:32;;;;;;;22.63;8.23;;;25.60;90.90;;;;;;5054482;28;20236;-62
2022/03/26 11:30:28;;;;;;;16.60;7.30;;;25.90;91.10;;;;;;5068380;28;20267;-63
2022/03/26 11:32:55;;;;;;;23.55;7.80;;;26.70;91.60;;;;;;5071547;28;20191;-62
2022/03/26 11:35:22;;;;;;;15.93;7.13;;;26.20;90.10;;;;;;5070815;28;20179;-62
2022/03/26 11:37:55;;;;;;;15.55;7.95;;;25.00;90.90;;;;;;5062417;28;20623;-62
2022/03/26 11:40:39;;;;;;;21.33;8.15;;;23.90;92.30;;;;;;5062733;28;20173;-62
2022/03/26 11:43:05;;;;;;;23.30;8.65;;;24.40;92.70;;;;;;5071610;28;20203;-62
2022/03/26 11:51:27;;;;;;;19.77;8.10;;;24.30;93.10;;;;;;5062294;28;20563;-61
2022/03/26 11:53:58;;;;;;;15.23;8.10;;;23.70;93.90;;;;;;5047292;28;20181;-62
2022/03/26 11:56:33;;;;;;;20.60;8.35;;;23.10;93.70;;;;;;5069697;28;20267;-62
2022/03/26 11:59:17;;;;;;;23.02;8.98;;;24.50;94.30;;;;;;5065886;28;20579;-63
2022/03/26 12:01:46;;;;;;;19.08;8.27;;;25.80;93.40;;;;;;5052926;28;20695;-63
2022/03/26 12:04:27;;;;;;;18.17;8.88;;;27.00;92.90;;;;;;5070679;28;20712;-63
2022/03/26 12:06:58;;;;;;;22.00;8.38;;;26.40;92.30;;;;;;5069659;28;20235;-63
2022/03/26 12:09:34;;;;;;;23.77;8.85;;;26.60;92.30;;;;;;5058762;28;20229;-63
2022/03/26 12:12:05;;;;;;;18.83;8.23;;;27.30;92.20;;;;;;5058045;28;20655;-63
2022/03/26 12:14:32;;;;;;;18.88;8.52;;;27.20;92.10;;;;;;5065590;28;20224;-64
2022/03/26 12:16:58;;;;;;;15.02;8.38;;;27.50;91.70;;;;;;5070778;28;20210;-63
2022/03/26 12:19:50;;;;;;;23.92;9.43;;;26.70;91.60;;;;;;5070582;28;20179;-63
2022/03/26 12:22:27;;;;;;;19.45;8.02;;;25.20;92.40;;;;;;5070487;28;20173;-63
2022/03/26 12:24:56;;;;;;;19.15;9.50;;;26.00;93.60;;;;;;5069988;28;20199;-63
2022/03/26 12:27:23;;;;;;;20.50;10.60;;;26.50;92.40;;;;;;5070029;28;20183;-63
2022/03/26 12:29:52;;;;;;;16.60;9.70;;;24.80;92.60;;;;;;5070396;28;20254;-63
2022/03/26 12:32:18;;;;;;;23.13;9.38;;;24.70;92.80;;;;;;5070311;28;20164;-63
2022/03/26 12:35:10;;;;;;;17.38;9.68;;;24.50;92.60;;;;;;5070203;28;20169;-63
2022/03/26 12:37:38;;;;;;;20.05;9.35;;;24.10;92.60;;;;;;5064871;28;20188;-63
2022/03/26 12:40:11;;;;;;;22.15;9.23;;;24.00;93.80;;;;;;5070162;28;20185;-63
2022/03/26 12:42:37;;;;;;;22.40;9.15;;;24.70;94.00;;;;;;5052188;28;20215;-63
2022/03/26 12:45:14;;;;;;;17.40;10.48;;;26.00;93.60;;;;;;5070104;28;20189;-63
2022/03/26 12:47:44;;;;;;;19.35;9.35;;;26.70;92.20;;;;;;5051493;28;20184;-63
2022/03/26 12:50:10;;;;;;;17.20;9.43;;;27.00;92.40;;;;;;5065201;28;20172;-63